Time;durP1;ratioP1;P1;durP2;ratioP2;P2;SDS_P1;SDS_P2;PMS_P1;PMS_P2;Temp;Humidity;BMP_temperature;BMP_pressure;BME280_temperature;BME280_humidity;BME280_pressure;Samples;Min_cycle;Max_cycle;Signal;HPM_P1;HPM_P2
2022/03/14 00:01:58;;;;;;;23.45;11.20;;;6.20;36.10;;;;;;5021701;28;20044;-62
2022/03/14 00:04:24;;;;;;;26.65;11.27;;;6.20;36.00;;;;;;5021248;28;20038;-64
2022/03/14 00:06:51;;;;;;;21.73;10.55;;;6.30;36.20;;;;;;5020954;28;20064;-65
2022/03/14 00:09:17;;;;;;;23.08;11.10;;;6.30;36.00;;;;;;5021457;28;20029;-62
2022/03/14 00:11:44;;;;;;;25.08;11.18;;;6.20;36.20;;;;;;5021951;28;20115;-64
2022/03/14 00:14:10;;;;;;;28.23;10.82;;;6.20;36.00;;;;;;5018878;28;20774;-64
2022/03/14 00:16:41;;;;;;;26.02;11.75;;;6.20;36.10;;;;;;5022641;28;20033;-65
2022/03/14 00:19:07;;;;;;;27.35;10.93;;;6.20;36.30;;;;;;5025983;28;20091;-64
2022/03/14 00:21:38;;;;;;;22.92;10.48;;;6.10;36.20;;;;;;5025955;28;20061;-64
2022/03/14 00:24:04;;;;;;;21.17;10.57;;;6.10;36.30;;;;;;5025076;28;20041;-64
2022/03/14 00:26:30;;;;;;;24.35;10.95;;;6.10;36.50;;;;;;5025124;28;20032;-64
2022/03/14 00:28:56;;;;;;;24.30;10.90;;;6.10;36.60;;;;;;5025476;28;20037;-64
2022/03/14 00:31:22;;;;;;;25.67;11.10;;;6.00;36.60;;;;;;5021165;28;20132;-64
2022/03/14 00:33:48;;;;;;;25.77;11.27;;;6.00;37.00;;;;;;5034580;28;20025;-64
2022/03/14 00:36:14;;;;;;;22.55;11.35;;;6.00;36.80;;;;;;5024975;28;20029;-64
2022/03/14 00:38:40;;;;;;;26.58;11.38;;;5.90;37.00;;;;;;5025383;28;20037;-64
2022/03/14 00:41:07;;;;;;;26.85;11.65;;;5.90;36.80;;;;;;5023596;28;20040;-64
2022/03/14 00:43:34;;;;;;;24.98;11.30;;;5.90;36.90;;;;;;5024935;28;20142;-64
2022/03/14 00:46:00;;;;;;;24.73;10.68;;;5.90;36.90;;;;;;5024254;28;20037;-64
2022/03/14 00:48:26;;;;;;;26.70;11.80;;;5.80;37.10;;;;;;5024486;28;20061;-64
2022/03/14 00:50:54;;;;;;;25.10;11.27;;;5.70;37.40;;;;;;5025327;28;20033;-64
2022/03/14 00:53:20;;;;;;;25.13;10.98;;;5.70;37.60;;;;;;5024811;28;20025;-65
2022/03/14 00:55:46;;;;;;;25.88;10.77;;;5.60;37.60;;;;;;5023682;28;20029;-64
2022/03/14 00:58:12;;;;;;;26.15;11.38;;;5.70;37.60;;;;;;5024477;28;20033;-64
2022/03/14 01:00:38;;;;;;;26.75;11.77;;;5.60;37.90;;;;;;5024411;28;20033;-64
2022/03/14 01:03:04;;;;;;;25.17;10.52;;;5.60;38.00;;;;;;5024361;28;20083;-64
2022/03/14 01:05:30;;;;;;;27.00;11.27;;;5.60;37.90;;;;;;5023605;28;20075;-64
2022/03/14 01:07:56;;;;;;;28.30;11.35;;;5.60;38.00;;;;;;5024504;28;20027;-63
2022/03/14 01:10:23;;;;;;;25.95;10.80;;;5.50;38.00;;;;;;5023759;28;20413;-64
2022/03/14 01:12:49;;;;;;;28.17;10.52;;;5.50;38.00;;;;;;5024169;28;20034;-63
2022/03/14 01:15:16;;;;;;;24.50;10.90;;;5.50;38.10;;;;;;5023134;28;20033;-64
2022/03/14 01:17:41;;;;;;;21.35;9.80;;;5.50;38.30;;;;;;5023816;28;20108;-64
2022/03/14 01:20:08;;;;;;;25.65;11.63;;;5.40;38.10;;;;;;5023934;28;20573;-64
2022/03/14 01:22:35;;;;;;;24.58;11.25;;;5.40;38.40;;;;;;5024086;28;20030;-64
2022/03/14 01:25:03;;;;;;;26.00;10.50;;;5.40;38.90;;;;;;5023033;28;20061;-64
2022/03/14 01:27:29;;;;;;;25.80;11.48;;;5.40;38.50;;;;;;5023979;28;20037;-64
2022/03/14 01:29:55;;;;;;;25.20;11.38;;;5.30;38.60;;;;;;5022533;28;20029;-64
2022/03/14 01:32:21;;;;;;;31.00;11.13;;;5.30;38.80;;;;;;5023093;28;20823;-64
2022/03/14 01:34:47;;;;;;;27.25;10.48;;;5.30;39.10;;;;;;5023677;28;20124;-64
2022/03/14 01:37:12;;;;;;;23.67;10.30;;;5.20;39.00;;;;;;5023200;28;20025;-64
2022/03/14 01:39:38;;;;;;;25.10;10.65;;;5.20;39.50;;;;;;5023585;28;20075;-64
2022/03/14 01:42:04;;;;;;;26.70;10.90;;;5.10;39.30;;;;;;5023203;28;20500;-64
2022/03/14 01:44:30;;;;;;;27.48;11.13;;;5.10;39.70;;;;;;5023032;28;20508;-64
2022/03/14 01:46:57;;;;;;;23.70;10.15;;;5.00;39.50;;;;;;5022658;28;20091;-64
2022/03/14 01:49:23;;;;;;;23.00;10.93;;;5.00;39.80;;;;;;5023858;28;20239;-64
2022/03/14 01:51:58;;;;;;;22.30;10.50;;;4.90;39.90;;;;;;5023709;28;20801;-64
2022/03/14 01:54:24;;;;;;;27.40;11.43;;;5.00;40.10;;;;;;5019810;28;20059;-63
2022/03/14 01:56:50;;;;;;;28.33;10.93;;;4.90;39.90;;;;;;5022778;28;20041;-64
2022/03/14 01:59:18;;;;;;;29.13;11.32;;;4.90;40.10;;;;;;5023028;28;20047;-64
2022/03/14 02:01:44;;;;;;;27.52;11.40;;;4.90;40.00;;;;;;5022408;28;20087;-64
2022/03/14 02:04:10;;;;;;;22.13;9.95;;;4.80;40.00;;;;;;5024205;28;20494;-64
2022/03/14 02:06:37;;;;;;;26.27;10.50;;;4.90;40.20;;;;;;5022687;28;20025;-64
2022/03/14 02:09:03;;;;;;;20.00;9.93;;;4.80;40.30;;;;;;5021615;28;20025;-64
2022/03/14 02:11:29;;;;;;;25.85;10.50;;;4.80;40.40;;;;;;5022979;28;20045;-64
2022/03/14 02:13:55;;;;;;;22.75;10.55;;;4.70;40.40;;;;;;5020743;28;20141;-64
2022/03/14 02:16:20;;;;;;;23.95;10.63;;;4.70;40.70;;;;;;5022467;28;20386;-64
2022/03/14 02:18:46;;;;;;;25.77;10.38;;;4.70;40.60;;;;;;5022244;28;20458;-64
2022/03/14 02:21:13;;;;;;;26.95;10.90;;;4.60;40.70;;;;;;5022955;28;20036;-64
2022/03/14 02:23:40;;;;;;;26.42;11.23;;;4.60;40.60;;;;;;5022022;28;20030;-64
2022/03/14 02:26:06;;;;;;;22.25;10.13;;;4.60;40.80;;;;;;5020846;28;20036;-64
2022/03/14 02:28:32;;;;;;;25.42;11.00;;;4.60;41.10;;;;;;5022364;28;20033;-64
2022/03/14 02:31:00;;;;;;;26.38;10.98;;;4.60;41.20;;;;;;5021897;28;20028;-64
2022/03/14 02:33:26;;;;;;;28.50;10.82;;;4.50;41.30;;;;;;5022448;28;20033;-64
2022/03/14 02:35:52;;;;;;;24.42;10.13;;;4.50;41.30;;;;;;5021548;28;20679;-64
2022/03/14 02:38:19;;;;;;;27.05;11.13;;;4.40;41.30;;;;;;5021406;28;20040;-64
2022/03/14 02:40:47;;;;;;;27.23;10.68;;;4.40;41.50;;;;;;5021563;28;20117;-64
2022/03/14 02:43:16;;;;;;;26.50;9.73;;;4.40;41.60;;;;;;5022430;28;20041;-64
2022/03/14 02:45:46;;;;;;;28.10;10.82;;;4.40;41.90;;;;;;5017896;28;20068;-64
2022/03/14 02:48:13;;;;;;;23.05;9.70;;;4.30;41.80;;;;;;5021706;28;20790;-63
2022/03/14 02:50:42;;;;;;;27.00;10.18;;;4.30;42.10;;;;;;5022055;28;20037;-64
2022/03/14 02:53:13;;;;;;;24.27;10.98;;;4.30;42.20;;;;;;5021613;28;20029;-63
2022/03/14 02:55:39;;;;;;;22.60;10.05;;;4.20;42.20;;;;;;5022055;28;20029;-64
2022/03/14 02:58:06;;;;;;;22.85;10.65;;;4.20;42.30;;;;;;5022103;28;20044;-64
2022/03/14 03:00:35;;;;;;;26.33;10.50;;;4.20;42.30;;;;;;5021617;28;20029;-64
2022/03/14 03:03:02;;;;;;;26.73;10.48;;;4.20;42.50;;;;;;5022325;28;20319;-64
2022/03/14 03:05:31;;;;;;;25.98;10.77;;;4.10;42.40;;;;;;5020306;28;20799;-64
2022/03/14 03:07:59;;;;;;;25.88;10.88;;;4.10;42.30;;;;;;5021663;28;20838;-64
2022/03/14 03:10:25;;;;;;;25.75;10.15;;;4.10;42.50;;;;;;5022458;28;20601;-64
2022/03/14 03:12:52;;;;;;;23.30;10.00;;;4.00;42.60;;;;;;5021852;28;20025;-64
2022/03/14 03:15:19;;;;;;;27.70;10.68;;;4.00;42.60;;;;;;5017015;28;20072;-64
2022/03/14 03:17:45;;;;;;;21.20;9.45;;;4.00;42.70;;;;;;5021900;28;20033;-64
2022/03/14 03:20:12;;;;;;;24.98;10.75;;;4.00;42.60;;;;;;5021334;28;20500;-64
2022/03/14 03:22:38;;;;;;;25.20;10.68;;;4.00;42.60;;;;;;5021892;28;20405;-63
2022/03/14 03:25:08;;;;;;;24.65;9.82;;;4.00;42.70;;;;;;5021263;28;20539;-64
2022/03/14 03:27:34;;;;;;;28.05;11.23;;;4.00;42.70;;;;;;5022156;28;20049;-64
2022/03/14 03:30:01;;;;;;;24.52;9.93;;;4.00;42.70;;;;;;5021471;28;20520;-64
2022/03/14 03:32:27;;;;;;;23.20;10.00;;;4.00;42.70;;;;;;5022309;28;20810;-64
2022/03/14 03:34:53;;;;;;;19.88;9.95;;;4.00;42.90;;;;;;5021871;28;20038;-64
2022/03/14 03:37:18;;;;;;;23.65;9.90;;;3.90;42.80;;;;;;5021406;28;20029;-64
2022/03/14 03:39:44;;;;;;;22.65;10.30;;;3.90;42.60;;;;;;5021795;28;20564;-64
2022/03/14 03:42:10;;;;;;;20.48;9.65;;;3.90;42.80;;;;;;5022105;28;20064;-64
2022/03/14 03:44:37;;;;;;;20.73;10.27;;;3.80;42.70;;;;;;5021376;28;20109;-64
2022/03/14 03:47:03;;;;;;;24.13;10.30;;;3.90;43.00;;;;;;5021168;28;20037;-64
2022/03/14 03:49:30;;;;;;;22.77;10.02;;;3.90;42.90;;;;;;5021013;28;20137;-64
2022/03/14 03:51:56;;;;;;;22.13;9.02;;;3.90;42.70;;;;;;5028491;28;20088;-64
2022/03/14 03:54:22;;;;;;;20.73;9.32;;;3.90;43.10;;;;;;5021908;28;20045;-64
2022/03/14 03:56:49;;;;;;;26.45;10.05;;;3.80;42.80;;;;;;5021172;28;20034;-63
2022/03/14 03:59:15;;;;;;;19.83;10.50;;;3.80;43.00;;;;;;5021381;28;20075;-64
2022/03/14 04:01:43;;;;;;;25.67;10.85;;;3.80;42.70;;;;;;5021818;28;20021;-64
2022/03/14 04:04:09;;;;;;;20.55;9.25;;;3.80;42.70;;;;;;5017997;28;20040;-64
2022/03/14 04:06:35;;;;;;;23.95;10.10;;;3.80;42.90;;;;;;5021190;28;20053;-64
2022/03/14 04:09:03;;;;;;;20.42;9.95;;;3.70;42.80;;;;;;5021262;28;20100;-64
2022/03/14 04:11:29;;;;;;;26.88;11.18;;;3.70;43.10;;;;;;5021366;28;20087;-64
2022/03/14 04:13:58;;;;;;;24.35;9.93;;;3.70;43.10;;;;;;5021047;28;20048;-64
2022/03/14 04:16:26;;;;;;;24.30;10.05;;;3.70;43.20;;;;;;5020935;28;20038;-64
2022/03/14 04:18:55;;;;;;;24.55;10.45;;;3.60;43.30;;;;;;5019438;28;20576;-62
2022/03/14 04:21:21;;;;;;;22.55;10.25;;;3.60;43.20;;;;;;5021293;28;20120;-63
2022/03/14 04:23:48;;;;;;;25.95;9.57;;;3.60;43.40;;;;;;5021056;28;20022;-62
2022/03/14 04:26:14;;;;;;;22.20;10.13;;;3.60;43.70;;;;;;5021395;28;20032;-63
2022/03/14 04:28:41;;;;;;;25.02;10.00;;;3.60;43.50;;;;;;5019766;28;20302;-65
2022/03/14 04:31:08;;;;;;;22.33;9.77;;;3.50;43.30;;;;;;5020518;28;20021;-63
2022/03/14 04:33:34;;;;;;;24.02;10.23;;;3.40;43.70;;;;;;5021481;28;20033;-63
2022/03/14 04:36:00;;;;;;;27.20;10.63;;;3.40;43.80;;;;;;5023536;28;20033;-63
2022/03/14 04:38:27;;;;;;;25.88;10.20;;;3.40;43.80;;;;;;5021462;28;20121;-63
2022/03/14 04:40:56;;;;;;;25.27;10.25;;;3.40;43.80;;;;;;5019113;28;20117;-63
2022/03/14 04:43:22;;;;;;;21.60;9.82;;;3.30;44.10;;;;;;5020603;28;20033;-63
2022/03/14 04:45:49;;;;;;;25.50;10.25;;;3.30;44.00;;;;;;5023465;28;20028;-63
2022/03/14 04:48:16;;;;;;;24.45;10.98;;;3.30;44.50;;;;;;5020995;28;20029;-63
2022/03/14 04:50:42;;;;;;;25.35;10.05;;;3.20;44.10;;;;;;5020159;28;20025;-63
2022/03/14 04:53:09;;;;;;;27.02;10.68;;;3.20;44.10;;;;;;5021086;28;20125;-63
2022/03/14 04:55:36;;;;;;;25.60;11.20;;;3.20;44.30;;;;;;5020306;28;20060;-63
2022/03/14 04:58:05;;;;;;;22.23;9.85;;;3.20;44.30;;;;;;5019864;28;20040;-63
2022/03/14 05:00:32;;;;;;;26.73;10.90;;;3.20;44.40;;;;;;5018848;28;20029;-63
2022/03/14 05:03:05;;;;;;;25.50;11.48;;;3.20;44.20;;;;;;5023945;28;20048;-63
2022/03/14 05:05:36;;;;;;;27.58;10.40;;;3.10;44.50;;;;;;5023771;28;20720;-63
2022/03/14 05:08:02;;;;;;;23.52;10.20;;;3.10;45.50;;;;;;5023925;28;20033;-63
2022/03/14 05:10:28;;;;;;;21.50;9.60;;;3.10;45.10;;;;;;5024265;28;20029;-63
2022/03/14 05:12:53;;;;;;;23.80;10.63;;;3.00;44.90;;;;;;5021155;28;20030;-63
2022/03/14 05:15:19;;;;;;;28.27;10.75;;;3.00;45.00;;;;;;5023586;28;20040;-63
2022/03/14 05:17:46;;;;;;;27.05;10.15;;;2.90;45.10;;;;;;5023855;28;20128;-63
2022/03/14 05:20:12;;;;;;;30.55;11.02;;;2.90;45.40;;;;;;5023981;28;20029;-63
2022/03/14 05:22:49;;;;;;;26.00;10.15;;;2.90;45.30;;;;;;5024264;28;20063;-63
2022/03/14 05:25:19;;;;;;;24.77;9.70;;;2.80;45.30;;;;;;5024439;28;20161;-63
2022/03/14 05:27:45;;;;;;;23.75;9.40;;;2.80;45.30;;;;;;5020913;28;20033;-63
2022/03/14 05:30:11;;;;;;;27.58;10.70;;;2.80;45.50;;;;;;5024826;28;20037;-63
2022/03/14 05:32:39;;;;;;;26.38;9.93;;;2.80;45.60;;;;;;5024632;28;20029;-63
2022/03/14 05:35:06;;;;;;;22.73;10.60;;;2.80;45.80;;;;;;5022780;28;20039;-63
2022/03/14 05:37:33;;;;;;;24.35;10.02;;;2.80;45.90;;;;;;5024390;28;20056;-63
2022/03/14 05:39:58;;;;;;;20.83;9.95;;;2.80;45.80;;;;;;5023410;28;20057;-63
2022/03/14 05:42:25;;;;;;;19.45;9.07;;;2.80;45.90;;;;;;5023329;28;20037;-63
2022/03/14 05:44:51;;;;;;;22.85;9.98;;;2.80;46.10;;;;;;5023439;28;20580;-63
2022/03/14 05:47:19;;;;;;;24.23;10.65;;;2.90;46.00;;;;;;5023266;28;20021;-63
2022/03/14 05:49:45;;;;;;;21.58;10.38;;;2.90;45.50;;;;;;5023010;28;20032;-63
2022/03/14 05:52:13;;;;;;;19.92;9.60;;;2.90;45.40;;;;;;5025669;28;20029;-63
2022/03/14 05:54:39;;;;;;;22.75;9.77;;;3.00;45.30;;;;;;5023319;28;20033;-63
2022/03/14 05:57:06;;;;;;;23.67;9.77;;;3.00;45.00;;;;;;5022374;28;20072;-63
2022/03/14 05:59:32;;;;;;;22.70;10.48;;;3.10;44.80;;;;;;5023398;28;20578;-63
2022/03/14 06:01:58;;;;;;;26.45;10.40;;;3.10;45.00;;;;;;5024918;28;20041;-63
2022/03/14 06:04:24;;;;;;;22.08;9.98;;;3.10;44.70;;;;;;5024122;28;20040;-63
2022/03/14 06:06:50;;;;;;;26.95;10.32;;;3.10;44.80;;;;;;5023011;28;20025;-63
2022/03/14 06:09:15;;;;;;;26.05;9.50;;;3.20;44.60;;;;;;5023806;28;20021;-63
2022/03/14 06:11:42;;;;;;;23.15;9.25;;;3.20;44.20;;;;;;5021969;28;20473;-63
2022/03/14 06:14:08;;;;;;;25.77;9.93;;;3.30;44.20;;;;;;5022467;28;20563;-63
2022/03/14 06:16:34;;;;;;;24.33;10.73;;;3.40;44.00;;;;;;5021703;28;20488;-63
2022/03/14 06:19:00;;;;;;;22.45;10.23;;;3.50;44.00;;;;;;5022697;28;20045;-63
2022/03/14 06:21:26;;;;;;;33.95;11.00;;;3.50;43.70;;;;;;5022572;28;20044;-63
2022/03/14 06:23:51;;;;;;;25.08;10.10;;;3.60;43.70;;;;;;5022476;28;20039;-63
2022/03/14 06:26:17;;;;;;;26.23;9.40;;;3.60;43.60;;;;;;5022563;28;20049;-63
2022/03/14 06:28:43;;;;;;;22.30;9.43;;;3.70;43.30;;;;;;5022515;28;20030;-63
2022/03/14 06:31:10;;;;;;;28.75;11.63;;;3.80;43.10;;;;;;5023011;28;20063;-64
2022/03/14 06:33:37;;;;;;;22.58;10.23;;;3.90;43.20;;;;;;5022758;28;20044;-63
2022/03/14 06:36:03;;;;;;;25.50;9.90;;;4.00;43.00;;;;;;5021730;28;20075;-63
2022/03/14 06:38:28;;;;;;;27.75;10.20;;;4.10;42.70;;;;;;5022736;28;20025;-63
2022/03/14 06:40:56;;;;;;;22.60;9.65;;;4.20;42.40;;;;;;5022594;28;20034;-63
2022/03/14 06:43:23;;;;;;;24.70;10.65;;;4.30;42.50;;;;;;5022448;28;20036;-63
2022/03/14 06:45:49;;;;;;;21.13;10.93;;;4.40;41.80;;;;;;5021961;28;20057;-63
2022/03/14 06:48:15;;;;;;;24.10;10.07;;;4.30;42.40;;;;;;5026917;28;20084;-63
2022/03/14 06:50:41;;;;;;;25.45;11.10;;;4.40;41.50;;;;;;5022381;28;20885;-63
2022/03/14 06:53:07;;;;;;;21.42;9.70;;;4.60;42.00;;;;;;5021248;28;20193;-63
2022/03/14 06:55:33;;;;;;;23.20;10.40;;;4.70;41.80;;;;;;5021939;28;20116;-62
2022/03/14 06:57:59;;;;;;;24.30;10.57;;;4.80;41.40;;;;;;5022132;28;20673;-62
2022/03/14 07:00:26;;;;;;;25.73;10.70;;;4.80;40.90;;;;;;5026351;28;20037;-64
2022/03/14 07:02:54;;;;;;;27.35;10.23;;;4.90;41.00;;;;;;5022342;28;20121;-63
2022/03/14 07:05:23;;;;;;;22.85;10.55;;;4.90;40.90;;;;;;5021758;28;20037;-62
2022/03/14 07:07:50;;;;;;;25.77;11.43;;;5.00;40.90;;;;;;5022408;28;20117;-67
2022/03/14 07:10:17;;;;;;;25.73;11.40;;;5.00;40.60;;;;;;5022690;28;20033;-68
2022/03/14 07:12:46;;;;;;;23.23;10.45;;;5.20;40.80;;;;;;5021893;28;20034;-66
2022/03/14 07:15:22;;;;;;;27.58;10.20;;;5.30;40.50;;;;;;5021691;28;20097;-62
2022/03/14 07:17:50;;;;;;;23.63;9.88;;;5.40;40.40;;;;;;5019356;28;20028;-63
2022/03/14 07:20:19;;;;;;;27.35;10.20;;;5.50;40.10;;;;;;5021881;28;20029;-70
2022/03/14 07:22:58;;;;;;;27.13;11.52;;;5.70;39.90;;;;;;5021552;28;20140;-63
2022/03/14 07:25:26;;;;;;;21.98;10.77;;;5.80;39.90;;;;;;5018239;28;20044;-63
2022/03/14 07:27:59;;;;;;;25.83;12.18;;;6.00;38.70;;;;;;5021969;28;20071;-63
2022/03/14 07:30:25;;;;;;;21.23;9.32;;;8.50;35.90;;;;;;5021947;28;20659;-63
2022/03/14 07:32:52;;;;;;;19.30;9.93;;;12.40;29.60;;;;;;5021454;28;20142;-64
2022/03/14 07:35:19;;;;;;;22.45;10.82;;;14.30;27.20;;;;;;5020717;28;20041;-63
2022/03/14 07:37:44;;;;;;;23.90;10.95;;;15.40;26.60;;;;;;5021419;28;20033;-63
2022/03/14 07:40:12;;;;;;;22.30;9.98;;;16.80;25.40;;;;;;5021399;28;20095;-63
2022/03/14 07:42:43;;;;;;;23.75;11.45;;;18.20;24.50;;;;;;5019067;28;20056;-63
2022/03/14 07:45:10;;;;;;;23.25;10.57;;;19.20;23.40;;;;;;5020909;28;20033;-64
2022/03/14 07:47:36;;;;;;;23.75;12.48;;;19.90;22.50;;;;;;5021587;28;20025;-62
2022/03/14 07:50:05;;;;;;;23.77;10.52;;;20.30;22.20;;;;;;5020699;28;20864;-62
2022/03/14 07:52:31;;;;;;;21.65;10.18;;;20.30;22.50;;;;;;5020991;28;20672;-63
2022/03/14 07:54:57;;;;;;;17.52;10.60;;;20.00;22.50;;;;;;5021041;28;20025;-62
2022/03/14 07:57:23;;;;;;;20.20;10.70;;;20.00;22.90;;;;;;5020475;28;20025;-62
2022/03/14 07:59:49;;;;;;;18.35;10.68;;;19.60;22.60;;;;;;5021307;28;20022;-62
2022/03/14 08:02:15;;;;;;;17.92;10.63;;;19.30;22.80;;;;;;5021758;28;20037;-61
2022/03/14 08:04:41;;;;;;;17.77;10.15;;;18.60;22.80;;;;;;5020742;28;20488;-62
2022/03/14 08:07:07;;;;;;;21.58;11.10;;;18.50;23.30;;;;;;5020834;28;20099;-62
2022/03/14 08:09:33;;;;;;;21.85;10.35;;;19.10;23.00;;;;;;5021100;28;20025;-61
2022/03/14 08:12:00;;;;;;;17.98;10.77;;;19.60;22.60;;;;;;5019161;28;20037;-62
2022/03/14 08:14:27;;;;;;;18.00;9.30;;;19.10;22.60;;;;;;5021178;28;20042;-62
2022/03/14 08:16:53;;;;;;;16.73;9.07;;;19.20;22.70;;;;;;5020378;28;20040;-72
2022/03/14 08:19:20;;;;;;;20.15;9.48;;;18.60;22.90;;;;;;5016957;28;20460;-62
2022/03/14 08:21:47;;;;;;;18.58;9.10;;;18.40;22.90;;;;;;5020934;28;20037;-62
2022/03/14 08:24:13;;;;;;;14.07;8.45;;;16.60;24.20;;;;;;5020799;28;20120;-64
2022/03/14 08:26:39;;;;;;;14.80;8.60;;;14.90;25.60;;;;;;5020434;28;20037;-62
2022/03/14 08:29:05;;;;;;;15.27;9.57;;;13.60;26.80;;;;;;5020368;28;20114;-64
2022/03/14 08:31:32;;;;;;;16.48;9.00;;;12.80;27.50;;;;;;5022489;28;20583;-64
2022/03/14 08:33:59;;;;;;;16.38;8.80;;;12.70;27.90;;;;;;5021494;28;20039;-64
2022/03/14 08:36:25;;;;;;;17.88;8.55;;;12.70;27.60;;;;;;5023301;28;20187;-64
2022/03/14 08:38:51;;;;;;;17.63;9.55;;;13.20;27.70;;;;;;5024401;28;20500;-62
2022/03/14 08:41:17;;;;;;;15.10;8.02;;;14.80;26.30;;;;;;5023878;28;20045;-63
2022/03/14 08:43:44;;;;;;;14.98;8.18;;;15.10;25.60;;;;;;5023904;28;20048;-64
2022/03/14 08:46:10;;;;;;;13.88;7.88;;;14.40;26.00;;;;;;5020976;28;20654;-64
2022/03/14 08:48:36;;;;;;;13.35;7.47;;;13.80;26.70;;;;;;5024533;28;20110;-62
2022/03/14 08:51:03;;;;;;;20.33;8.38;;;13.80;26.50;;;;;;5024111;28;20041;-61
2022/03/14 08:53:29;;;;;;;15.07;8.20;;;14.10;26.00;;;;;;5020931;28;20143;-64
2022/03/14 08:55:55;;;;;;;16.58;8.40;;;14.80;26.10;;;;;;5023240;28;20717;-63
2022/03/14 08:58:22;;;;;;;15.38;8.18;;;14.00;26.60;;;;;;5024819;28;20033;-64
2022/03/14 09:00:49;;;;;;;16.15;8.40;;;13.10;27.30;;;;;;5023847;28;20041;-62
2022/03/14 09:03:14;;;;;;;16.38;7.57;;;14.20;26.90;;;;;;5023947;28;20144;-63
2022/03/14 09:05:40;;;;;;;13.27;7.75;;;16.70;24.70;;;;;;5019743;28;20034;-61
2022/03/14 09:08:06;;;;;;;16.58;8.45;;;17.10;24.30;;;;;;5023679;28;20148;-62
2022/03/14 09:10:36;;;;;;;14.27;8.18;;;17.30;24.00;;;;;;5022337;28;20064;-62
2022/03/14 09:13:03;;;;;;;15.68;7.68;;;18.60;22.90;;;;;;5023626;28;20033;-62
2022/03/14 09:15:30;;;;;;;11.82;7.65;;;20.60;21.60;;;;;;5027239;28;20056;-62
2022/03/14 09:17:59;;;;;;;15.48;8.35;;;22.90;20.80;;;;;;5023772;28;20139;-62
2022/03/14 09:20:26;;;;;;;14.85;7.75;;;25.30;19.40;;;;;;5023245;28;20760;-62
2022/03/14 09:22:53;;;;;;;11.77;7.68;;;24.70;19.30;;;;;;5021085;28;20767;-62
2022/03/14 09:25:21;;;;;;;15.70;7.70;;;23.80;19.90;;;;;;5023432;28;20029;-63
2022/03/14 09:27:48;;;;;;;12.55;8.05;;;24.20;19.50;;;;;;5022697;28;20045;-62
2022/03/14 09:30:15;;;;;;;11.27;7.45;;;22.90;20.20;;;;;;5024509;28;20034;-62
2022/03/14 09:32:41;;;;;;;13.10;8.35;;;22.50;20.40;;;;;;5023953;28;20440;-63
2022/03/14 09:35:09;;;;;;;12.95;7.63;;;21.50;21.10;;;;;;5023233;28;20026;-62
2022/03/14 09:37:37;;;;;;;13.10;8.00;;;19.80;22.30;;;;;;5024479;28;20057;-62
2022/03/14 09:40:10;;;;;;;12.55;7.75;;;17.90;23.60;;;;;;5023012;28;20060;-62
2022/03/14 09:42:43;;;;;;;12.52;7.75;;;16.30;24.60;;;;;;5021408;28;20033;-62
2022/03/14 09:45:10;;;;;;;21.73;11.70;;;15.90;25.20;;;;;;5022014;28;20435;-62
2022/03/14 09:47:39;;;;;;;42.75;25.27;;;18.10;23.80;;;;;;5021812;28;20030;-62
2022/03/14 09:50:08;;;;;;;11.38;6.55;;;19.40;22.50;;;;;;5022694;28;20107;-62
2022/03/14 09:52:37;;;;;;;13.23;8.13;;;17.50;23.70;;;;;;5019180;28;20022;-64
2022/03/14 09:55:06;;;;;;;9.93;6.60;;;15.70;25.10;;;;;;5021767;28;20065;-62
2022/03/14 09:57:32;;;;;;;13.25;7.07;;;15.00;26.20;;;;;;5022675;28;20721;-62
2022/03/14 09:59:58;;;;;;;17.13;10.27;;;15.00;26.00;;;;;;5022841;28;20457;-64
2022/03/14 10:02:25;;;;;;;14.05;7.63;;;16.50;24.90;;;;;;5021947;28;20502;-62
2022/03/14 10:04:51;;;;;;;10.82;6.47;;;19.60;22.70;;;;;;5021631;28;20719;-62
2022/03/14 10:07:17;;;;;;;11.30;6.70;;;21.60;21.10;;;;;;5022803;28;20026;-62
2022/03/14 10:09:43;;;;;;;14.10;6.72;;;23.70;20.50;;;;;;5022492;28;20746;-61
2022/03/14 10:12:10;;;;;;;8.52;5.95;;;25.20;19.50;;;;;;5018913;28;20033;-62
2022/03/14 10:14:35;;;;;;;10.77;6.55;;;24.50;19.40;;;;;;5020403;28;20091;-62
2022/03/14 10:17:02;;;;;;;11.45;6.80;;;23.70;19.70;;;;;;5020993;28;20037;-62
2022/03/14 10:19:34;;;;;;;11.30;6.72;;;23.20;20.20;;;;;;5020334;28;20064;-62
2022/03/14 10:22:39;;;;;;;17.25;8.40;;;24.00;20.10;;;;;;5021799;28;20195;-62
2022/03/14 10:25:10;;;;;;;9.23;6.72;;;25.80;18.90;;;;;;5020108;28;20037;-62
2022/03/14 10:27:41;;;;;;;9.48;6.72;;;26.00;19.10;;;;;;5022000;28;20033;-62
2022/03/14 10:30:20;;;;;;;10.27;6.80;;;26.40;18.90;;;;;;5021663;28;20033;-62
2022/03/14 10:32:48;;;;;;;11.18;7.20;;;27.60;18.70;;;;;;5019604;28;20047;-62
2022/03/14 10:35:22;;;;;;;14.18;6.90;;;28.00;18.40;;;;;;5022386;28;20116;-62
2022/03/14 10:37:59;;;;;;;11.63;6.80;;;29.20;18.00;;;;;;5022843;28;20025;-62
2022/03/14 10:40:46;;;;;;;9.95;6.95;;;31.00;17.90;;;;;;5016386;28;20680;-62
2022/03/14 10:43:25;;;;;;;10.70;6.53;;;33.10;17.30;;;;;;5017448;28;20034;-62
2022/03/14 10:45:52;;;;;;;10.57;6.68;;;33.50;16.70;;;;;;5017975;28;20026;-62
2022/03/14 10:48:43;;;;;;;11.45;6.80;;;32.20;16.80;;;;;;5020968;28;20033;-62
2022/03/14 10:51:11;;;;;;;11.02;7.00;;;30.90;17.30;;;;;;5022454;28;20073;-62
2022/03/14 10:53:44;;;;;;;10.65;6.82;;;30.70;17.10;;;;;;5021884;28;20119;-62
2022/03/14 10:56:11;;;;;;;9.85;6.53;;;29.80;17.90;;;;;;5021712;28;20124;-62
2022/03/14 10:58:38;;;;;;;11.50;6.70;;;30.30;17.70;;;;;;5020223;28;20116;-62
2022/03/14 11:01:12;;;;;;;11.50;7.57;;;30.80;17.50;;;;;;5021865;28;20116;-62
2022/03/14 11:03:39;;;;;;;9.70;6.57;;;30.50;17.60;;;;;;5022325;28;20025;-62
2022/03/14 11:06:13;;;;;;;9.52;6.40;;;28.80;18.10;;;;;;5021203;28;20021;-62
2022/03/14 11:08:42;;;;;;;10.82;7.10;;;28.60;18.30;;;;;;5018616;28;20091;-62
2022/03/14 11:11:22;;;;;;;11.00;6.90;;;28.40;18.20;;;;;;5021722;28;20040;-62
2022/03/14 11:13:50;;;;;;;9.63;6.47;;;29.10;18.50;;;;;;5018810;28;20116;-62
2022/03/14 11:16:29;;;;;;;14.25;7.45;;;29.20;17.90;;;;;;5020867;28;20520;-62
2022/03/14 11:18:56;;;;;;;8.93;6.75;;;27.20;18.50;;;;;;5021662;28;20121;-62
2022/03/14 11:21:24;;;;;;;12.20;6.90;;;25.00;19.60;;;;;;5022212;28;20037;-62
2022/03/14 11:23:52;;;;;;;11.32;7.90;;;22.60;21.60;;;;;;5018880;28;20029;-62
2022/03/14 11:26:20;;;;;;;11.88;7.32;;;19.90;23.10;;;;;;5021527;28;20726;-62
2022/03/14 11:28:49;;;;;;;11.13;6.95;;;18.30;24.70;;;;;;5021141;28;20055;-62
2022/03/14 11:31:17;;;;;;;10.60;7.07;;;17.10;25.00;;;;;;5021609;28;20833;-62
2022/03/14 11:33:43;;;;;;;13.65;8.00;;;16.30;26.70;;;;;;5021888;28;20048;-62
2022/03/14 11:36:09;;;;;;;13.50;6.75;;;15.90;27.20;;;;;;5020193;28;20029;-62
2022/03/14 11:38:36;;;;;;;11.38;6.82;;;15.60;27.40;;;;;;5021520;28;20033;-61
2022/03/14 11:41:03;;;;;;;12.30;7.07;;;15.30;27.90;;;;;;5024152;28;20024;-62
2022/03/14 11:43:29;;;;;;;16.75;7.85;;;15.40;27.50;;;;;;5022367;28;20029;-62
2022/03/14 11:45:58;;;;;;;16.08;7.25;;;15.30;27.40;;;;;;5021267;28;20025;-62
2022/03/14 11:48:30;;;;;;;14.13;7.72;;;15.10;27.70;;;;;;5021330;28;20104;-62
2022/03/14 11:51:06;;;;;;;9.60;6.65;;;14.90;28.20;;;;;;5021223;28;20045;-62
2022/03/14 11:53:32;;;;;;;;;;;14.40;28.60;;;;;;5017872;28;20108;-62
2022/03/14 11:56:05;;;;;;;12.63;7.50;;;14.40;29.10;;;;;;5020901;28;19913;-62
2022/03/14 11:58:38;;;;;;;13.27;7.90;;;14.40;29.10;;;;;;5021223;28;20425;-62
2022/03/14 12:01:20;;;;;;;18.23;7.55;;;14.60;28.80;;;;;;5023978;28;20118;-62
2022/03/14 12:03:52;;;;;;;12.43;6.82;;;14.60;28.90;;;;;;5021035;28;20073;-62
2022/03/14 12:06:57;;;;;;;11.15;7.30;;;14.80;29.40;;;;;;5020615;28;20026;-62
2022/03/14 12:09:26;;;;;;;11.68;7.35;;;15.20;28.60;;;;;;5019093;28;20041;-62
2022/03/14 12:11:52;;;;;;;10.35;7.20;;;15.40;27.90;;;;;;5021405;28;20163;-63
2022/03/14 12:14:43;;;;;;;12.18;7.10;;;15.50;28.10;;;;;;5021049;28;20029;-61
2022/03/14 12:17:15;;;;;;;12.57;6.63;;;15.70;28.10;;;;;;5019243;28;20036;-62
2022/03/14 12:19:44;;;;;;;18.15;7.82;;;15.70;28.20;;;;;;5021194;28;20151;-62
2022/03/14 12:22:15;;;;;;;13.45;7.82;;;15.90;28.10;;;;;;5017044;28;20025;-62
2022/03/14 12:24:47;;;;;;;13.55;7.45;;;15.90;27.70;;;;;;5020802;28;20037;-62
2022/03/14 12:27:23;;;;;;;11.48;7.45;;;16.10;28.40;;;;;;5021042;28;20033;-61
2022/03/14 12:29:51;;;;;;;14.63;7.50;;;16.30;27.50;;;;;;5018229;28;20029;-62
2022/03/14 12:32:36;;;;;;;12.52;8.35;;;16.50;27.50;;;;;;5020944;28;20040;-62
2022/03/14 12:35:17;;;;;;;14.25;8.85;;;16.80;27.90;;;;;;5019688;28;20706;-62
2022/03/14 12:37:52;;;;;;;12.25;7.80;;;17.10;27.00;;;;;;5020764;28;20405;-62
2022/03/14 12:40:21;;;;;;;15.80;8.07;;;17.00;27.40;;;;;;5017885;28;20040;-62
2022/03/14 12:43:09;;;;;;;11.82;7.72;;;16.80;27.60;;;;;;5020195;28;20037;-62